createdAt,value
2023-03-19T00:01:13.031Z,10.28
2023-03-19T00:03:43.582Z,10.22
2023-03-19T00:06:12.684Z,10.27
2023-03-19T00:08:41.947Z,10.23
2023-03-19T00:11:13.209Z,10.13
2023-03-19T00:13:42.433Z,10.14
2023-03-19T00:16:11.497Z,10.19
2023-03-19T00:18:41.939Z,10.24
2023-03-19T00:21:11.124Z,10.33
2023-03-19T00:23:40.155Z,10.51
2023-03-19T00:26:09.691Z,10.46
2023-03-19T00:28:40.091Z,10.53
2023-03-19T00:31:11.523Z,10.58
2023-03-19T00:33:42.711Z,10.58
2023-03-19T00:36:12.861Z,10.52
2023-03-19T00:38:42.467Z,10.67
2023-03-19T00:41:12.309Z,10.76
2023-03-19T00:43:42.066Z,10.58
2023-03-19T00:46:11.417Z,10.54
2023-03-19T00:48:42.182Z,10.47
2023-03-19T00:51:12.078Z,10.38
2023-03-19T00:53:42.722Z,10.33
2023-03-19T00:56:13.862Z,10.28
2023-03-19T00:58:43.190Z,10.17
2023-03-19T01:01:15.667Z,10.08
2023-03-19T01:03:47.378Z,10.01
2023-03-19T01:06:16.959Z,9.97
2023-03-19T01:08:45.979Z,9.93
2023-03-19T01:11:17.269Z,9.99
2023-03-19T01:13:46.609Z,10.08
2023-03-19T01:16:15.900Z,10.07
2023-03-19T01:18:46.536Z,10.11
2023-03-19T01:21:15.631Z,10.22
2023-03-19T01:23:48.626Z,10.17
2023-03-19T01:26:18.332Z,9.94
2023-03-19T01:28:48.542Z,9.69
2023-03-19T01:31:18.180Z,9.81
2023-03-19T01:34:21.538Z,9.69
2023-03-19T01:36:55.202Z,9.72
2023-03-19T01:39:30.792Z,9.71
2023-03-19T01:42:03.308Z,9.71
2023-03-19T01:44:58.600Z,9.70
2023-03-19T01:47:46.728Z,9.63
2023-03-19T01:50:31.397Z,9.69
2023-03-19T01:53:23.945Z,9.68
2023-03-19T01:56:04.138Z,9.59
2023-03-19T01:58:42.811Z,9.55
2023-03-19T02:01:43.222Z,9.52
2023-03-19T02:04:19.895Z,9.55
2023-03-19T02:06:50.428Z,9.48
2023-03-19T02:09:20.329Z,9.51
2023-03-19T02:11:49.436Z,9.53
2023-03-19T02:14:18.612Z,9.54
2023-03-19T02:16:47.706Z,9.44
2023-03-19T02:19:23.452Z,9.31
2023-03-19T02:21:56.571Z,9.31
2023-03-19T02:24:32.613Z,9.37
2023-03-19T02:27:10.219Z,9.32
2023-03-19T02:29:42.764Z,9.27
2023-03-19T02:32:12.841Z,9.19
2023-03-19T02:34:43.046Z,9.04
2023-03-19T02:37:17.473Z,8.93
2023-03-19T02:39:55.707Z,8.88
2023-03-19T02:42:28.731Z,8.81
2023-03-19T02:44:59.363Z,8.85
2023-03-19T02:47:28.809Z,8.73
2023-03-19T02:49:57.873Z,8.62
2023-03-19T02:52:28.039Z,8.62
2023-03-19T02:54:57.071Z,8.72
2023-03-19T02:57:28.257Z,8.52
2023-03-19T02:59:57.286Z,8.47
2023-03-19T03:02:27.251Z,8.64
2023-03-19T03:04:56.327Z,8.45
2023-03-19T03:07:27.553Z,8.32
2023-03-19T03:09:56.728Z,8.20
2023-03-19T03:12:27.162Z,8.18
2023-03-19T03:14:56.578Z,8.14
2023-03-19T03:17:25.644Z,8.15
2023-03-19T03:19:55.017Z,8.43
2023-03-19T03:22:24.236Z,8.14
2023-03-19T03:24:53.285Z,8.01
2023-03-19T03:27:22.692Z,7.73
2023-03-19T03:29:53.157Z,7.70
2023-03-19T03:32:22.330Z,7.66
2023-03-19T03:34:51.656Z,7.56
2023-03-19T03:37:20.725Z,7.55
2023-03-19T03:39:49.772Z,7.59
2023-03-19T03:42:20.052Z,7.66
2023-03-19T03:44:49.207Z,7.85
2023-03-19T03:47:20.002Z,7.97
2023-03-19T03:49:49.092Z,7.93
2023-03-19T03:52:18.507Z,8.07
2023-03-19T03:54:47.652Z,8.19
2023-03-19T03:57:16.784Z,8.26
2023-03-19T03:59:45.980Z,8.34
2023-03-19T04:02:15.401Z,8.27
2023-03-19T04:04:47.499Z,8.34
2023-03-19T04:07:16.724Z,8.36
2023-03-19T04:09:51.332Z,8.40
2023-03-19T04:12:20.953Z,8.38
2023-03-19T04:14:50.275Z,8.37
2023-03-19T04:17:19.660Z,8.33
2023-03-19T04:19:50.226Z,8.36
2023-03-19T04:22:19.493Z,8.37
2023-03-19T04:24:48.614Z,8.40
2023-03-19T04:27:17.780Z,8.44
2023-03-19T04:29:47.759Z,8.53
2023-03-19T04:32:19.301Z,8.62
2023-03-19T04:34:50.144Z,8.63
2023-03-19T04:37:19.285Z,8.75
2023-03-19T04:39:51.913Z,8.73
2023-03-19T04:42:21.110Z,8.64
2023-03-19T04:45:07.815Z,8.58
2023-03-19T04:47:37.412Z,8.52
2023-03-19T04:50:09.666Z,8.66
2023-03-19T04:52:39.267Z,8.66
2023-03-19T04:55:09.668Z,8.70
2023-03-19T04:57:50.802Z,8.70
2023-03-19T05:00:22.911Z,8.72
2023-03-19T05:02:52.199Z,8.80
2023-03-19T05:05:22.713Z,8.80
2023-03-19T05:07:51.837Z,8.88
2023-03-19T05:10:21.028Z,8.96
2023-03-19T05:12:50.412Z,8.91
2023-03-19T05:15:20.088Z,9.01
2023-03-19T05:17:59.655Z,9.09
2023-03-19T05:20:42.470Z,9.11
2023-03-19T05:23:19.545Z,9.08
2023-03-19T05:25:58.876Z,9.13
2023-03-19T05:28:47.916Z,9.21
2023-03-19T05:31:20.946Z,9.21
2023-03-19T05:33:53.450Z,9.23
2023-03-19T05:36:25.059Z,9.20
2023-03-19T05:39:00.245Z,9.17
2023-03-19T05:41:35.664Z,9.12
2023-03-19T05:44:07.812Z,9.07
2023-03-19T05:46:57.228Z,9.02
2023-03-19T05:49:29.034Z,9.08
2023-03-19T05:51:59.445Z,9.08
2023-03-19T05:54:28.660Z,9.06
2023-03-19T05:57:05.468Z,9.04
2023-03-19T05:59:44.426Z,9.04
2023-03-19T06:02:43.271Z,9.10
2023-03-19T06:05:27.344Z,9.24
2023-03-19T06:08:02.255Z,9.28
2023-03-19T06:10:54.668Z,9.29
2023-03-19T06:13:24.268Z,9.34
2023-03-19T06:15:59.910Z,9.40
2023-03-19T06:18:58.488Z,9.32
2023-03-19T06:21:29.652Z,9.31
2023-03-19T06:24:03.115Z,9.37
2023-03-19T06:26:37.276Z,9.43
2023-03-19T06:29:12.736Z,9.33
2023-03-19T06:31:43.356Z,9.41
2023-03-19T06:34:20.810Z,9.44
2023-03-19T06:36:50.490Z,9.40
2023-03-19T06:39:21.956Z,9.43
2023-03-19T06:41:51.317Z,9.43
2023-03-19T06:44:25.058Z,9.49
2023-03-19T06:46:54.052Z,9.56
2023-03-19T06:49:23.951Z,9.65
2023-03-19T06:51:53.025Z,9.70
2023-03-19T06:54:23.623Z,9.76
2023-03-19T06:56:52.669Z,9.85
2023-03-19T06:59:22.065Z,9.92
2023-03-19T07:01:52.862Z,10.06
2023-03-19T07:04:22.624Z,10.06
2023-03-19T07:06:52.708Z,9.97
2023-03-19T07:09:24.063Z,10.05
2023-03-19T07:11:54.276Z,10.03
2023-03-19T07:14:25.172Z,10.04
2023-03-19T07:16:55.252Z,10.37
2023-03-19T07:19:25.269Z,10.49
2023-03-19T07:21:55.379Z,10.50
2023-03-19T07:24:26.788Z,10.91
2023-03-19T07:26:57.079Z,10.95
2023-03-19T07:29:26.646Z,11.12
2023-03-19T07:31:56.708Z,10.85
2023-03-19T07:34:26.259Z,10.85
2023-03-19T07:36:55.282Z,10.81
2023-03-19T07:39:26.603Z,10.96
2023-03-19T07:41:55.910Z,10.98
2023-03-19T07:44:26.109Z,11.04
2023-03-19T07:46:55.190Z,11.23
2023-03-19T07:49:25.252Z,11.25
2023-03-19T07:51:54.292Z,11.37
2023-03-19T07:54:24.929Z,12.03
2023-03-19T07:56:54.010Z,12.01
2023-03-19T07:59:23.224Z,11.90
2023-03-19T08:01:52.371Z,12.20
2023-03-19T08:04:21.603Z,12.15
2023-03-19T08:06:50.657Z,12.43
2023-03-19T08:09:19.704Z,12.81
2023-03-19T08:11:50.482Z,12.68
2023-03-19T08:14:22.443Z,12.89
2023-03-19T08:16:51.739Z,13.36
2023-03-19T08:19:21.005Z,13.07
2023-03-19T08:21:50.060Z,13.24
2023-03-19T08:24:19.732Z,13.17
2023-03-19T08:26:50.799Z,13.31
2023-03-19T08:29:19.982Z,13.52
2023-03-19T08:31:49.004Z,13.35
2023-03-19T08:34:18.067Z,13.39
2023-03-19T08:36:47.278Z,13.29
2023-03-19T08:39:16.424Z,13.48
2023-03-19T08:41:45.508Z,13.10
2023-03-19T08:44:15.933Z,13.20
2023-03-19T08:46:45.290Z,13.59
2023-03-19T08:49:14.338Z,13.54
2023-03-19T08:51:43.500Z,13.39
2023-03-19T08:54:13.707Z,13.51
2023-03-19T08:56:42.750Z,13.77
2023-03-19T08:59:11.771Z,13.67
2023-03-19T09:01:42.190Z,13.81
2023-03-19T09:04:11.328Z,13.98
2023-03-19T09:06:40.929Z,14.07
2023-03-19T09:09:10.131Z,14.27
2023-03-19T09:11:39.332Z,14.52
2023-03-19T09:14:08.402Z,14.29
2023-03-19T09:16:37.517Z,14.54
2023-03-19T09:19:08.482Z,15.58
2023-03-19T09:21:38.008Z,15.53
2023-03-19T09:24:07.795Z,15.67
2023-03-19T09:26:37.016Z,15.88
2023-03-19T09:29:06.116Z,15.78
2023-03-19T09:31:36.257Z,16.03
2023-03-19T09:34:08.810Z,15.90
2023-03-19T09:36:38.395Z,17.07
2023-03-19T09:39:08.417Z,16.32
2023-03-19T09:41:45.445Z,16.87
2023-03-19T09:44:17.445Z,17.10
2023-03-19T09:46:53.262Z,17.01
2023-03-19T09:49:27.511Z,17.23
2023-03-19T09:52:00.179Z,16.58
2023-03-19T09:54:33.392Z,16.18
2023-03-19T09:57:03.171Z,15.95
2023-03-19T09:59:32.334Z,15.64
2023-03-19T10:02:25.336Z,15.83
2023-03-19T10:05:09.938Z,15.47
2023-03-19T10:07:59.637Z,15.49
2023-03-19T10:10:50.206Z,15.94
2023-03-19T10:13:30.823Z,16.54
2023-03-19T10:16:02.479Z,16.79
2023-03-19T10:18:35.861Z,16.97
2023-03-19T10:21:12.506Z,16.50
2023-03-19T10:23:46.652Z,17.47
2023-03-19T10:26:18.718Z,17.41
2023-03-19T10:28:57.970Z,17.93
2023-03-19T10:31:31.084Z,17.22
2023-03-19T10:34:35.832Z,17.31
2023-03-19T10:37:14.736Z,16.36
2023-03-19T10:39:45.364Z,16.81
2023-03-19T10:42:39.738Z,16.82
2023-03-19T10:45:22.047Z,16.85
2023-03-19T10:47:52.899Z,17.06
2023-03-19T10:50:28.667Z,16.85
2023-03-19T10:53:06.792Z,16.66
2023-03-19T10:55:36.419Z,16.58
2023-03-19T10:58:08.180Z,16.76
2023-03-19T11:00:37.348Z,16.46
2023-03-19T11:03:27.480Z,16.50
2023-03-19T11:06:06.867Z,16.84
2023-03-19T11:08:39.007Z,17.23
2023-03-19T11:11:08.107Z,16.65
2023-03-19T11:13:37.373Z,16.71
2023-03-19T11:16:06.819Z,17.46
2023-03-19T11:18:40.303Z,17.56
2023-03-19T11:21:22.465Z,17.15
2023-03-19T11:24:00.279Z,17.52
2023-03-19T11:26:29.454Z,17.03
2023-03-19T11:29:05.029Z,16.99
2023-03-19T11:31:40.255Z,16.75
2023-03-19T11:34:30.456Z,16.53
2023-03-19T11:37:10.233Z,16.73
2023-03-19T11:39:54.064Z,16.40
2023-03-19T11:42:46.351Z,16.37
2023-03-19T11:45:23.412Z,16.34
2023-03-19T11:48:03.694Z,17.65
2023-03-19T11:50:39.909Z,18.57
2023-03-19T11:53:19.271Z,17.45
2023-03-19T11:55:58.459Z,17.32
2023-03-19T11:58:53.851Z,17.84
2023-03-19T12:01:45.469Z,17.60
2023-03-19T12:04:30.816Z,18.02
2023-03-19T12:07:11.392Z,17.75
2023-03-19T12:09:49.805Z,17.74
2023-03-19T12:12:26.825Z,17.71
2023-03-19T12:15:09.673Z,17.97
2023-03-19T12:17:49.782Z,17.67
2023-03-19T12:20:34.152Z,17.27
2023-03-19T12:23:13.264Z,17.25
2023-03-19T12:26:00.188Z,16.57
2023-03-19T12:28:33.986Z,16.95
2023-03-19T12:31:29.338Z,16.70
2023-03-19T12:34:12.637Z,16.80
2023-03-19T12:36:49.732Z,16.89
2023-03-19T12:39:23.528Z,16.73
2023-03-19T12:41:56.176Z,16.58
2023-03-19T12:44:31.957Z,16.58
2023-03-19T12:47:06.054Z,16.60
2023-03-19T12:49:39.181Z,16.61
2023-03-19T12:52:19.825Z,16.77
2023-03-19T12:54:56.386Z,16.90
2023-03-19T12:57:33.240Z,16.64
2023-03-19T13:00:10.581Z,16.42
2023-03-19T13:02:45.329Z,16.27
2023-03-19T13:05:26.053Z,16.57
2023-03-19T13:08:03.543Z,16.75
2023-03-19T13:10:33.435Z,16.58
2023-03-19T13:13:07.427Z,16.83
2023-03-19T13:15:42.346Z,16.69
2023-03-19T13:18:25.953Z,16.38
2023-03-19T13:21:11.702Z,16.58
2023-03-19T13:23:44.001Z,16.62
2023-03-19T13:26:14.715Z,16.38
2023-03-19T13:29:01.521Z,16.32
2023-03-19T13:31:36.940Z,16.19
2023-03-19T13:34:08.796Z,16.20
2023-03-19T13:36:40.247Z,16.24
2023-03-19T13:39:17.024Z,16.35
2023-03-19T13:42:12.725Z,16.18
2023-03-19T13:44:44.026Z,15.75
2023-03-19T13:47:40.655Z,15.75
2023-03-19T13:50:27.302Z,15.59
2023-03-19T13:53:21.394Z,15.72
2023-03-19T13:55:54.989Z,16.11
2023-03-19T13:58:44.651Z,16.87
2023-03-19T14:01:33.460Z,17.13
2023-03-19T14:04:05.871Z,16.77
2023-03-19T14:06:39.763Z,15.93
2023-03-19T14:09:31.222Z,16.28
2023-03-19T14:12:21.918Z,15.96
2023-03-19T14:14:53.526Z,15.82
2023-03-19T14:17:26.445Z,15.78
2023-03-19T14:19:59.280Z,15.75
2023-03-19T14:22:36.756Z,15.79
2023-03-19T14:25:17.693Z,15.43
2023-03-19T14:27:49.466Z,16.59
2023-03-19T14:30:42.225Z,16.29
2023-03-19T14:33:21.074Z,16.52
2023-03-19T14:35:52.119Z,15.81
2023-03-19T14:38:33.041Z,16.01
2023-03-19T14:41:03.875Z,15.69
2023-03-19T14:44:02.053Z,15.54
2023-03-19T14:46:45.116Z,15.48
2023-03-19T14:49:50.945Z,15.14
2023-03-19T14:52:24.323Z,15.26
2023-03-19T14:54:57.082Z,15.09
2023-03-19T14:57:29.808Z,15.19
2023-03-19T14:59:58.872Z,15.08
2023-03-19T15:02:40.548Z,15.21
2023-03-19T15:05:15.381Z,15.25
2023-03-19T15:07:48.802Z,15.28
2023-03-19T15:10:20.694Z,15.12
2023-03-19T15:13:17.397Z,15.28
2023-03-19T15:16:11.321Z,15.31
2023-03-19T15:18:40.831Z,15.32
2023-03-19T15:21:10.196Z,15.36
2023-03-19T15:23:42.631Z,15.46
2023-03-19T15:26:12.374Z,15.29
2023-03-19T15:28:50.397Z,15.33
2023-03-19T15:31:31.950Z,15.22
2023-03-19T15:34:20.742Z,14.92
2023-03-19T15:36:54.525Z,15.17
2023-03-19T15:39:29.421Z,15.00
2023-03-19T15:42:01.942Z,14.77
2023-03-19T15:44:36.383Z,14.71
2023-03-19T15:47:11.556Z,14.64
2023-03-19T15:49:44.851Z,14.63
2023-03-19T15:52:18.792Z,14.56
2023-03-19T15:54:49.579Z,14.52
2023-03-19T15:57:19.783Z,14.52
2023-03-19T15:59:53.104Z,14.45
2023-03-19T16:02:29.326Z,14.47
2023-03-19T16:05:24.902Z,14.44
2023-03-19T16:07:56.515Z,14.46
2023-03-19T16:10:40.275Z,14.60
2023-03-19T16:13:29.594Z,14.60
2023-03-19T16:16:06.044Z,14.49
2023-03-19T16:18:45.533Z,14.35
2023-03-19T16:21:18.161Z,14.68
2023-03-19T16:23:52.406Z,14.68
2023-03-19T16:26:25.841Z,14.49
2023-03-19T16:29:18.667Z,14.60
2023-03-19T16:31:51.812Z,14.49
2023-03-19T16:34:42.161Z,14.41
2023-03-19T16:37:35.206Z,14.51
2023-03-19T16:40:31.272Z,14.27
2023-03-19T16:43:08.328Z,14.00
2023-03-19T16:45:37.803Z,14.10
2023-03-19T16:48:07.058Z,14.15
2023-03-19T16:50:38.554Z,14.03
2023-03-19T16:53:20.068Z,14.05
2023-03-19T16:55:49.600Z,13.86
2023-03-19T16:58:28.167Z,13.72
2023-03-19T17:00:57.402Z,13.72
2023-03-19T17:03:26.668Z,13.57
2023-03-19T17:05:55.856Z,13.55
2023-03-19T17:08:26.223Z,13.39
2023-03-19T17:10:56.250Z,13.29
2023-03-19T17:13:29.971Z,13.23
2023-03-19T17:16:02.344Z,13.20
2023-03-19T17:18:35.035Z,13.12
2023-03-19T17:21:09.671Z,13.10
2023-03-19T17:23:38.943Z,13.01
2023-03-19T17:26:16.493Z,13.00
2023-03-19T17:28:47.694Z,12.81
2023-03-19T17:31:26.506Z,12.72
2023-03-19T17:34:01.766Z,12.69
2023-03-19T17:36:31.307Z,12.60
2023-03-19T17:39:00.538Z,12.53
2023-03-19T17:41:35.557Z,12.45
2023-03-19T17:44:06.887Z,12.36
2023-03-19T17:46:40.682Z,12.27
2023-03-19T17:49:19.911Z,12.19
2023-03-19T17:51:49.067Z,12.10
2023-03-19T17:54:18.705Z,11.98
2023-03-19T17:56:47.962Z,11.93
2023-03-19T17:59:18.372Z,11.89
2023-03-19T18:01:48.072Z,11.70
2023-03-19T18:04:19.311Z,11.60
2023-03-19T18:06:51.633Z,11.46
2023-03-19T18:09:22.436Z,11.30
2023-03-19T18:11:52.285Z,11.33
2023-03-19T18:14:23.055Z,11.28
2023-03-19T18:16:52.620Z,11.21
2023-03-19T18:19:27.187Z,11.12
2023-03-19T18:21:59.167Z,11.13
2023-03-19T18:24:28.416Z,11.10
2023-03-19T18:26:57.748Z,11.04
2023-03-19T18:29:28.546Z,10.97
2023-03-19T18:32:03.871Z,10.82
2023-03-19T18:34:33.476Z,10.79
2023-03-19T18:37:02.617Z,10.78
2023-03-19T18:39:36.375Z,10.75
2023-03-19T18:42:05.869Z,10.72
2023-03-19T18:44:37.307Z,10.73
2023-03-19T18:47:06.742Z,10.85
2023-03-19T18:49:36.505Z,10.70
2023-03-19T18:52:05.867Z,10.51
2023-03-19T18:54:35.112Z,10.57
2023-03-19T18:57:04.445Z,10.55
2023-03-19T18:59:36.574Z,10.69
2023-03-19T19:02:29.753Z,10.73
2023-03-19T19:04:59.159Z,10.67
2023-03-19T19:07:28.341Z,10.64
2023-03-19T19:09:57.629Z,10.60
2023-03-19T19:12:27.684Z,10.52
2023-03-19T19:14:59.629Z,10.46
2023-03-19T19:17:29.572Z,10.45
2023-03-19T19:19:58.835Z,10.43
2023-03-19T19:22:29.754Z,10.44
2023-03-19T19:24:58.810Z,10.37
2023-03-19T19:27:28.074Z,10.28
2023-03-19T19:30:00.793Z,10.25
2023-03-19T19:32:32.265Z,10.24
2023-03-19T19:35:02.081Z,10.25
2023-03-19T19:37:31.225Z,10.38
2023-03-19T19:40:00.488Z,10.33
2023-03-19T19:42:30.482Z,10.29
2023-03-19T19:45:03.131Z,10.27
2023-03-19T19:47:34.695Z,10.11
2023-03-19T19:50:03.909Z,10.04
2023-03-19T19:52:33.154Z,9.90
2023-03-19T19:55:02.269Z,9.90
2023-03-19T19:57:31.431Z,9.88
2023-03-19T20:00:01.913Z,9.82
2023-03-19T20:02:31.475Z,9.75
2023-03-19T20:05:01.068Z,9.87
2023-03-19T20:07:30.531Z,9.78
2023-03-19T20:09:59.675Z,9.71
2023-03-19T20:12:34.051Z,9.77
2023-03-19T20:15:04.725Z,9.76
2023-03-19T20:17:33.877Z,9.78
2023-03-19T20:20:03.442Z,9.78
2023-03-19T20:22:33.489Z,9.77
2023-03-19T20:25:04.208Z,9.79
2023-03-19T20:27:34.539Z,9.54
2023-03-19T20:30:06.091Z,9.42
2023-03-19T20:32:37.012Z,9.30
2023-03-19T20:35:15.905Z,9.21
2023-03-19T20:37:45.040Z,9.28
2023-03-19T20:40:15.331Z,9.13
2023-03-19T20:42:47.121Z,9.26
2023-03-19T20:45:20.803Z,9.25
2023-03-19T20:47:52.686Z,9.11
2023-03-19T20:50:24.794Z,8.94
2023-03-19T20:52:55.339Z,8.98
2023-03-19T20:55:27.787Z,9.02
2023-03-19T20:57:58.268Z,8.96
2023-03-19T21:00:30.853Z,9.04
2023-03-19T21:03:01.837Z,8.92
2023-03-19T21:05:36.421Z,8.84
2023-03-19T21:08:07.289Z,8.71
2023-03-19T21:10:39.651Z,8.79
2023-03-19T21:13:13.325Z,8.81
2023-03-19T21:15:43.996Z,8.89
2023-03-19T21:18:13.663Z,8.95
2023-03-19T21:20:45.234Z,8.75
2023-03-19T21:23:19.687Z,8.76
2023-03-19T21:25:49.193Z,8.56
2023-03-19T21:28:24.811Z,8.59
2023-03-19T21:30:56.225Z,8.67
2023-03-19T21:33:26.948Z,8.76
2023-03-19T21:35:57.491Z,8.66
2023-03-19T21:38:27.256Z,8.78
2023-03-19T21:40:59.196Z,8.75
2023-03-19T21:43:33.999Z,8.84
2023-03-19T21:46:22.890Z,8.76
2023-03-19T21:48:53.623Z,8.66
2023-03-19T21:51:23.487Z,8.83
2023-03-19T21:53:52.990Z,8.75
2023-03-19T21:56:24.474Z,8.76
2023-03-19T21:58:54.618Z,8.75
2023-03-19T22:01:26.131Z,8.72
2023-03-19T22:03:56.432Z,8.75
2023-03-19T22:06:26.233Z,8.77
2023-03-19T22:08:55.436Z,8.67
2023-03-19T22:11:27.996Z,8.65
2023-03-19T22:14:04.045Z,8.80
2023-03-19T22:16:34.949Z,8.71
2023-03-19T22:19:04.330Z,8.57
2023-03-19T22:21:35.353Z,8.74
2023-03-19T22:24:04.601Z,8.81
2023-03-19T22:26:35.822Z,8.78
2023-03-19T22:29:07.588Z,8.86
2023-03-19T22:31:38.304Z,8.72
2023-03-19T22:34:07.516Z,8.75
2023-03-19T22:36:36.591Z,8.89
2023-03-19T22:39:06.415Z,8.85
2023-03-19T22:41:38.144Z,8.74
2023-03-19T22:44:10.181Z,8.76
2023-03-19T22:46:40.657Z,8.78
2023-03-19T22:49:16.411Z,8.93
2023-03-19T22:51:45.927Z,8.90
2023-03-19T22:54:15.605Z,9.03
2023-03-19T22:56:44.899Z,8.97
2023-03-19T22:59:13.995Z,8.90
2023-03-19T23:01:46.858Z,8.96
2023-03-19T23:04:20.151Z,8.86
2023-03-19T23:06:49.646Z,8.74
2023-03-19T23:09:21.342Z,8.92
2023-03-19T23:11:50.485Z,8.71
2023-03-19T23:14:29.725Z,8.75
2023-03-19T23:17:03.191Z,8.80
2023-03-19T23:19:34.698Z,8.73
2023-03-19T23:22:06.669Z,8.81
2023-03-19T23:24:35.783Z,8.79
2023-03-19T23:27:05.298Z,8.74
2023-03-19T23:29:39.754Z,8.71
2023-03-19T23:32:11.755Z,8.67
2023-03-19T23:34:56.401Z,8.60
2023-03-19T23:37:28.625Z,8.68
2023-03-19T23:39:57.884Z,8.70
2023-03-19T23:42:29.663Z,8.75
2023-03-19T23:45:03.309Z,8.70
2023-03-19T23:47:34.443Z,8.78
2023-03-19T23:50:03.684Z,8.83
2023-03-19T23:52:32.714Z,8.84
2023-03-19T23:55:01.729Z,8.76
2023-03-19T23:57:30.914Z,8.79
